Spirit of South Carolina — WDH8248 — position and weather

sailwx.info

Track history (hours):
 
Tides and Currents Weather Stations Pressure Air Temp Water Temp Dewpoint Dewpoint Depression Visibility Wind Speed Wind Dir Waves Ship Positions

Spirit of South Carolina

Ship's website: https://www.facebook.com/SpiritofSC/

Owner: Spirit of SC, LLC, Charleston, SC. More information available from US FCC via Universal Licensing System and Coast Guard Vessel Documentation Center.

Last reported at 2017-Sep-19 05:23 UTC. Time now 2017-Sep-22 17:16 UTC.
Position N 42°21' W 071°03'.

Length 43 m.

Type: Sailing vessel. MMSI: 338883000.

Date/timePositionNaut miles runAvg speedWind from/ knotsBaromVisibWave heightAir tempDewpointWater temp
2017-Sep-19 05:23N 42°21' W 071°03'0 0.0
2017-Sep-19 04:53N 42°21' W 071°03'0 0.0
2017-Sep-19 04:23N 42°21' W 071°03'0 0.0
2017-Sep-19 03:59N 42°21' W 071°03'0 0.0
2017-Sep-19 03:17N 42°21' W 071°03'0 0.0
2017-Sep-19 02:59N 42°21' W 071°03'0 0.0
2017-Sep-19 02:30N 42°21' W 071°03'0 0.0
2017-Sep-19 01:59N 42°21' W 071°03'0 0.0
2017-Sep-19 01:17N 42°21' W 071°03'0 0.0
2017-Sep-19 00:59N 42°21' W 071°03'0 0.0
2017-Sep-19 00:29N 42°21' W 071°03'0 0.0
2017-Sep-18 23:59N 42°21' W 071°03'0 0.0
2017-Sep-18 23:26N 42°21' W 071°03'0 0.0
2017-Sep-18 22:59N 42°21' W 071°03'0 0.0
2017-Sep-18 22:29N 42°21' W 071°03'0 0.0
2017-Sep-18 21:59N 42°21' W 071°03'0 0.0
2017-Sep-18 21:29N 42°21' W 071°03'0 0.0
2017-Sep-18 20:56N 42°21' W 071°03'0 0.0
2017-Sep-18 19:02N 42°21' W 071°03'0 0.0
2017-Sep-18 18:53N 42°21' W 071°03'0 0.0
2017-Sep-18 17:35N 42°21' W 071°03'0 0.0
2017-Sep-18 17:29N 42°21' W 071°03'0 0.0
2017-Sep-18 16:59N 42°21' W 071°03'0 0.0
2017-Sep-18 16:29N 42°21' W 071°03'0 0.0
2017-Sep-18 15:56N 42°21' W 071°03'0 0.0
2017-Sep-18 15:29N 42°21' W 071°03'0 0.0
2017-Sep-18 14:53N 42°21' W 071°03'0 0.0
2017-Sep-18 14:29N 42°21' W 071°03'0 0.0
2017-Sep-18 13:59N 42°21' W 071°03'0 0.0
2017-Sep-18 13:29N 42°21' W 071°03'0 0.0
2017-Sep-18 12:59N 42°21' W 071°03'0 0.0
2017-Sep-18 02:00N 42°21' W 071°03'0 0.0
2017-Sep-17 10:01N 42°21' W 071°03'  
2017-Sep-14 11:24N 42°21' W 071°03'0 0.0
2017-Sep-14 06:03N 42°21' W 071°03'0 0.0
2017-Sep-14 05:54N 42°21' W 071°03'0 0.0
2017-Sep-14 05:06N 42°21' W 071°03'0 0.0
2017-Sep-14 04:51N 42°21' W 071°03'0 0.0
2017-Sep-14 04:24N 42°21' W 071°03'0 0.0
2017-Sep-14 04:00N 42°21' W 071°03'0 0.0
2017-Sep-14 03:21N 42°21' W 071°03'0 0.0
2017-Sep-14 03:00N 42°21' W 071°03'0 0.0
2017-Sep-13 21:54N 42°21' W 071°03'0 0.0
2017-Sep-13 21:24N 42°21' W 071°03'0 0.0
2017-Sep-13 04:42N 42°21' W 071°03'0 0.0
2017-Sep-13 04:30N 42°21' W 071°03'0 0.0
2017-Sep-13 03:57N 42°21' W 071°03'0 0.0
2017-Sep-13 03:30N 42°21' W 071°03'0 0.0
2017-Sep-13 03:00N 42°21' W 071°03'0 0.0
2017-Sep-13 02:30N 42°21' W 071°03'0 0.0
2017-Sep-13 02:00N 42°21' W 071°03'0 0.0
2017-Sep-12 14:00N 42°21' W 071°03'0 0.0
2017-Sep-12 13:30N 42°21' W 071°03'0 0.0
2017-Sep-12 11:39N 42°21' W 071°03'0 0.0
2017-Sep-12 10:54N 42°21' W 071°03'0 0.0
2017-Sep-12 10:27N 42°21' W 071°03'0 0.0
2017-Sep-12 10:00N 42°21' W 071°03'0 0.0
2017-Sep-12 06:01N 42°21' W 071°03'0 0.0
2017-Sep-12 03:48N 42°21' W 071°03'0 0.0
2017-Sep-12 03:12N 42°21' W 071°03'0 0.0
2017-Sep-12 03:00N 42°21' W 071°03'0 0.0
2017-Sep-12 02:24N 42°21' W 071°03'0 0.0
2017-Sep-12 02:00N 42°21' W 071°03'0 0.0
2017-Sep-12 01:30N 42°21' W 071°03'0 0.0
2017-Sep-12 00:54N 42°21' W 071°03'0 0.0
2017-Sep-12 00:24N 42°21' W 071°03'1 0.1
2017-Sep-11 16:30N 42°22' W 071°02'3 3.8
2017-Sep-11 15:38N 42°20' W 070°58'1 6.5
2017-Sep-11 15:30N 42°20' W 070°57'3 6.0
2017-Sep-11 14:56N 42°23' W 070°54'3 6.6
2017-Sep-11 14:30N 42°25' W 070°51'4 7.4
2017-Sep-11 14:00N 42°27' W 070°47'4 7.2
2017-Sep-11 13:25N 42°30' W 070°43'3 6.7
2017-Sep-11 13:00N 42°31' W 070°40'4 7.2
2017-Sep-11 12:30N 42°34' W 070°37'3 6.7
2017-Sep-11 12:00N 42°36' W 070°33'4 7.9
2017-Sep-11 11:29N 42°39' W 070°29'4 8.7
2017-Sep-11 11:00N 42°42' W 070°25'108 7.7
2017-Sep-10 21:00N 44°11' W 069°00'  
Track history (hours):
 
Tides and Currents Weather Stations Pressure Air Temp Water Temp Dewpoint Dewpoint Depression Visibility Wind Speed Wind Dir Waves Ship Positions

Spirit of South Carolina

Ship's website: https://www.facebook.com/SpiritofSC/

Owner: Spirit of SC, LLC, Charleston, SC. More information available from US FCC via Universal Licensing System and Coast Guard Vessel Documentation Center.

Last reported at 2017-Sep-19 05:23 UTC. Time now 2017-Sep-22 17:16 UTC.
Position N 42°21' W 071°03'.

Length 43 m.

Type: Sailing vessel. MMSI: 338883000.

Date/timePositionNaut miles runAvg speedWind from/ knotsBaromVisibWave heightAir tempDewpointWater temp
2017-Sep-19 05:23N 42°21' W 071°03'0 0.0
2017-Sep-19 04:53N 42°21' W 071°03'0 0.0
2017-Sep-19 04:23N 42°21' W 071°03'0 0.0
2017-Sep-19 03:59N 42°21' W 071°03'0 0.0
2017-Sep-19 03:17N 42°21' W 071°03'0 0.0
2017-Sep-19 02:59N 42°21' W 071°03'0 0.0
2017-Sep-19 02:30N 42°21' W 071°03'0 0.0
2017-Sep-19 01:59N 42°21' W 071°03'0 0.0
2017-Sep-19 01:17N 42°21' W 071°03'0 0.0
2017-Sep-19 00:59N 42°21' W 071°03'0 0.0
2017-Sep-19 00:29N 42°21' W 071°03'0 0.0
2017-Sep-18 23:59N 42°21' W 071°03'0 0.0
2017-Sep-18 23:26N 42°21' W 071°03'0 0.0
2017-Sep-18 22:59N 42°21' W 071°03'0 0.0
2017-Sep-18 22:29N 42°21' W 071°03'0 0.0
2017-Sep-18 21:59N 42°21' W 071°03'0 0.0
2017-Sep-18 21:29N 42°21' W 071°03'0 0.0
2017-Sep-18 20:56N 42°21' W 071°03'0 0.0
2017-Sep-18 19:02N 42°21' W 071°03'0 0.0
2017-Sep-18 18:53N 42°21' W 071°03'0 0.0
2017-Sep-18 17:35N 42°21' W 071°03'0 0.0
2017-Sep-18 17:29N 42°21' W 071°03'0 0.0
2017-Sep-18 16:59N 42°21' W 071°03'0 0.0
2017-Sep-18 16:29N 42°21' W 071°03'0 0.0
2017-Sep-18 15:56N 42°21' W 071°03'0 0.0
2017-Sep-18 15:29N 42°21' W 071°03'0 0.0
2017-Sep-18 14:53N 42°21' W 071°03'0 0.0
2017-Sep-18 14:29N 42°21' W 071°03'0 0.0
2017-Sep-18 13:59N 42°21' W 071°03'0 0.0
2017-Sep-18 13:29N 42°21' W 071°03'0 0.0
2017-Sep-18 12:59N 42°21' W 071°03'0 0.0
2017-Sep-18 02:00N 42°21' W 071°03'0 0.0
2017-Sep-17 10:01N 42°21' W 071°03'  
2017-Sep-14 11:24N 42°21' W 071°03'0 0.0
2017-Sep-14 06:03N 42°21' W 071°03'0 0.0
2017-Sep-14 05:54N 42°21' W 071°03'0 0.0
2017-Sep-14 05:06N 42°21' W 071°03'0 0.0
2017-Sep-14 04:51N 42°21' W 071°03'0 0.0
2017-Sep-14 04:24N 42°21' W 071°03'0 0.0
2017-Sep-14 04:00N 42°21' W 071°03'0 0.0
2017-Sep-14 03:21N 42°21' W 071°03'0 0.0
2017-Sep-14 03:00N 42°21' W 071°03'0 0.0
2017-Sep-13 21:54N 42°21' W 071°03'0 0.0
2017-Sep-13 21:24N 42°21' W 071°03'0 0.0
2017-Sep-13 04:42N 42°21' W 071°03'0 0.0
2017-Sep-13 04:30N 42°21' W 071°03'0 0.0
2017-Sep-13 03:57N 42°21' W 071°03'0 0.0
2017-Sep-13 03:30N 42°21' W 071°03'0 0.0
2017-Sep-13 03:00N 42°21' W 071°03'0 0.0
2017-Sep-13 02:30N 42°21' W 071°03'0 0.0
2017-Sep-13 02:00N 42°21' W 071°03'0 0.0
2017-Sep-12 14:00N 42°21' W 071°03'0 0.0
2017-Sep-12 13:30N 42°21' W 071°03'0 0.0
2017-Sep-12 11:39N 42°21' W 071°03'0 0.0
2017-Sep-12 10:54N 42°21' W 071°03'0 0.0
2017-Sep-12 10:27N 42°21' W 071°03'0 0.0
2017-Sep-12 10:00N 42°21' W 071°03'0 0.0
2017-Sep-12 06:01N 42°21' W 071°03'0 0.0
2017-Sep-12 03:48N 42°21' W 071°03'0 0.0
2017-Sep-12 03:12N 42°21' W 071°03'0 0.0
2017-Sep-12 03:00N 42°21' W 071°03'0 0.0
2017-Sep-12 02:24N 42°21' W 071°03'0 0.0
2017-Sep-12 02:00N 42°21' W 071°03'0 0.0
2017-Sep-12 01:30N 42°21' W 071°03'0 0.0
2017-Sep-12 00:54N 42°21' W 071°03'0 0.0
2017-Sep-12 00:24N 42°21' W 071°03'1 0.1
2017-Sep-11 16:30N 42°22' W 071°02'3 3.8
2017-Sep-11 15:38N 42°20' W 070°58'1 6.5
2017-Sep-11 15:30N 42°20' W 070°57'3 6.0
2017-Sep-11 14:56N 42°23' W 070°54'3 6.6
2017-Sep-11 14:30N 42°25' W 070°51'4 7.4
2017-Sep-11 14:00N 42°27' W 070°47'4 7.2
2017-Sep-11 13:25N 42°30' W 070°43'3 6.7
2017-Sep-11 13:00N 42°31' W 070°40'4 7.2
2017-Sep-11 12:30N 42°34' W 070°37'3 6.7
2017-Sep-11 12:00N 42°36' W 070°33'4 7.9
2017-Sep-11 11:29N 42°39' W 070°29'4 8.7
2017-Sep-11 11:00N 42°42' W 070°25'108 7.7
2017-Sep-10 21:00N 44°11' W 069°00'  

Dump ship's entire track history